sensor_id;sensor_type;location;lat;lon;timestamp;temperature;humidity
12520;DHT22;6325;49.540;8.364;2023-02-15T00:01:31;3.30;99.90
12520;DHT22;6325;49.540;8.364;2023-02-15T00:04:00;3.80;99.90
12520;DHT22;6325;49.540;8.364;2023-02-15T00:06:27;3.20;99.90
12520;DHT22;6325;49.540;8.364;2023-02-15T00:08:54;3.30;99.90
12520;DHT22;6325;49.540;8.364;2023-02-15T00:11:22;3.20;99.90
12520;DHT22;6325;49.540;8.364;2023-02-15T00:14:03;3.60;99.90
12520;DHT22;6325;49.540;8.364;2023-02-15T00:16:30;3.10;99.90
12520;DHT22;6325;49.540;8.364;2023-02-15T00:18:57;2.90;99.90
12520;DHT22;6325;49.540;8.364;2023-02-15T00:21:29;3.90;99.90
12520;DHT22;6325;49.540;8.364;2023-02-15T00:23:56;3.40;99.90
12520;DHT22;6325;49.540;8.364;2023-02-15T00:26:23;3.20;99.90
12520;DHT22;6325;49.540;8.364;2023-02-15T00:28:51;3.40;99.90
12520;DHT22;6325;49.540;8.364;2023-02-15T00:31:18;3.40;99.90
12520;DHT22;6325;49.540;8.364;2023-02-15T00:33:45;3.20;99.90
12520;DHT22;6325;49.540;8.364;2023-02-15T00:36:12;3.40;99.90
12520;DHT22;6325;49.540;8.364;2023-02-15T00:38:41;3.00;99.90
12520;DHT22;6325;49.540;8.364;2023-02-15T00:41:08;3.20;99.90
12520;DHT22;6325;49.540;8.364;2023-02-15T00:43:36;3.20;99.90
12520;DHT22;6325;49.540;8.364;2023-02-15T00:46:04;3.60;99.90
12520;DHT22;6325;49.540;8.364;2023-02-15T00:48:31;3.90;99.90
12520;DHT22;6325;49.540;8.364;2023-02-15T00:51:00;3.10;99.90
12520;DHT22;6325;49.540;8.364;2023-02-15T00:53:29;3.70;99.90
12520;DHT22;6325;49.540;8.364;2023-02-15T00:55:57;3.40;99.90
12520;DHT22;6325;49.540;8.364;2023-02-15T00:58:25;4.00;99.90
12520;DHT22;6325;49.540;8.364;2023-02-15T01:00:52;3.70;99.90
12520;DHT22;6325;49.540;8.364;2023-02-15T01:03:20;3.30;99.90
12520;DHT22;6325;49.540;8.364;2023-02-15T01:05:49;4.10;99.90
12520;DHT22;6325;49.540;8.364;2023-02-15T01:08:17;3.10;99.90
12520;DHT22;6325;49.540;8.364;2023-02-15T01:10:44;3.20;99.90
12520;DHT22;6325;49.540;8.364;2023-02-15T01:13:14;3.50;99.90
12520;DHT22;6325;49.540;8.364;2023-02-15T01:15:42;3.60;99.90
12520;DHT22;6325;49.540;8.364;2023-02-15T01:18:09;2.70;99.90
12520;DHT22;6325;49.540;8.364;2023-02-15T01:20:38;3.00;99.90
12520;DHT22;6325;49.540;8.364;2023-02-15T01:23:07;3.20;99.90
12520;DHT22;6325;49.540;8.364;2023-02-15T01:25:35;3.60;99.90
12520;DHT22;6325;49.540;8.364;2023-02-15T01:28:03;3.80;99.90
12520;DHT22;6325;49.540;8.364;2023-02-15T01:30:32;3.30;99.90
12520;DHT22;6325;49.540;8.364;2023-02-15T01:32:59;3.40;99.90
12520;DHT22;6325;49.540;8.364;2023-02-15T01:35:27;3.70;99.90
12520;DHT22;6325;49.540;8.364;2023-02-15T01:37:54;3.30;99.90
12520;DHT22;6325;49.540;8.364;2023-02-15T01:40:22;3.40;99.90
12520;DHT22;6325;49.540;8.364;2023-02-15T01:42:50;3.00;99.90
12520;DHT22;6325;49.540;8.364;2023-02-15T01:45:23;3.30;99.90
12520;DHT22;6325;49.540;8.364;2023-02-15T01:47:56;3.60;99.90
12520;DHT22;6325;49.540;8.364;2023-02-15T01:50:28;3.90;99.90
12520;DHT22;6325;49.540;8.364;2023-02-15T01:53:02;3.30;99.90
12520;DHT22;6325;49.540;8.364;2023-02-15T01:55:34;3.80;99.90
12520;DHT22;6325;49.540;8.364;2023-02-15T01:58:03;3.70;99.90
12520;DHT22;6325;49.540;8.364;2023-02-15T02:00:30;3.30;99.90
12520;DHT22;6325;49.540;8.364;2023-02-15T02:03:00;3.30;99.90
12520;DHT22;6325;49.540;8.364;2023-02-15T02:05:28;3.30;99.90
12520;DHT22;6325;49.540;8.364;2023-02-15T02:07:58;3.40;99.90
12520;DHT22;6325;49.540;8.364;2023-02-15T02:10:27;3.50;99.90
12520;DHT22;6325;49.540;8.364;2023-02-15T02:12:57;3.20;99.90
12520;DHT22;6325;49.540;8.364;2023-02-15T02:15:30;3.40;99.90
12520;DHT22;6325;49.540;8.364;2023-02-15T02:18:15;3.30;99.90
12520;DHT22;6325;49.540;8.364;2023-02-15T02:21:12;2.90;99.90
12520;DHT22;6325;49.540;8.364;2023-02-15T02:24:02;3.60;99.90
12520;DHT22;6325;49.540;8.364;2023-02-15T02:27:10;3.50;99.90
12520;DHT22;6325;49.540;8.364;2023-02-15T02:33:16;3.20;99.90
12520;DHT22;6325;49.540;8.364;2023-02-15T02:35:52;3.30;99.90
12520;DHT22;6325;49.540;8.364;2023-02-15T02:38:28;3.80;99.90
12520;DHT22;6325;49.540;8.364;2023-02-15T02:41:04;3.80;99.90
12520;DHT22;6325;49.540;8.364;2023-02-15T02:43:40;3.60;99.90
12520;DHT22;6325;49.540;8.364;2023-02-15T02:46:15;3.60;99.90
12520;DHT22;6325;49.540;8.364;2023-02-15T02:48:46;3.30;99.90
12520;DHT22;6325;49.540;8.364;2023-02-15T02:51:14;3.50;99.90
12520;DHT22;6325;49.540;8.364;2023-02-15T02:53:49;3.80;99.90
12520;DHT22;6325;49.540;8.364;2023-02-15T02:56:22;3.30;99.90
12520;DHT22;6325;49.540;8.364;2023-02-15T02:58:54;3.30;99.90
12520;DHT22;6325;49.540;8.364;2023-02-15T03:01:26;3.90;99.90
12520;DHT22;6325;49.540;8.364;2023-02-15T03:03:58;3.30;99.90
12520;DHT22;6325;49.540;8.364;2023-02-15T03:06:30;3.70;99.90
12520;DHT22;6325;49.540;8.364;2023-02-15T03:09:06;2.80;99.90
12520;DHT22;6325;49.540;8.364;2023-02-15T03:11:41;3.80;99.90
12520;DHT22;6325;49.540;8.364;2023-02-15T03:14:09;3.80;99.90
12520;DHT22;6325;49.540;8.364;2023-02-15T03:16:38;3.70;99.90
12520;DHT22;6325;49.540;8.364;2023-02-15T03:19:12;3.50;99.90
12520;DHT22;6325;49.540;8.364;2023-02-15T03:21:43;3.60;99.90
12520;DHT22;6325;49.540;8.364;2023-02-15T03:24:19;3.40;99.90
12520;DHT22;6325;49.540;8.364;2023-02-15T03:26:49;3.20;99.90
12520;DHT22;6325;49.540;8.364;2023-02-15T03:29:19;3.00;99.90
12520;DHT22;6325;49.540;8.364;2023-02-15T03:31:51;3.40;99.90
12520;DHT22;6325;49.540;8.364;2023-02-15T03:34:21;3.50;99.90
12520;DHT22;6325;49.540;8.364;2023-02-15T03:36:52;3.60;99.90
12520;DHT22;6325;49.540;8.364;2023-02-15T03:39:30;3.40;99.90
12520;DHT22;6325;49.540;8.364;2023-02-15T03:42:07;3.60;99.90
12520;DHT22;6325;49.540;8.364;2023-02-15T03:44:41;4.00;99.90
12520;DHT22;6325;49.540;8.364;2023-02-15T03:47:13;3.70;99.90
12520;DHT22;6325;49.540;8.364;2023-02-15T03:49:47;3.50;99.90
12520;DHT22;6325;49.540;8.364;2023-02-15T03:52:16;3.80;99.90
12520;DHT22;6325;49.540;8.364;2023-02-15T03:54:43;3.90;99.90
12520;DHT22;6325;49.540;8.364;2023-02-15T03:57:15;3.20;99.90
12520;DHT22;6325;49.540;8.364;2023-02-15T04:00:02;3.20;99.90
12520;DHT22;6325;49.540;8.364;2023-02-15T04:05:40;3.60;99.90
12520;DHT22;6325;49.540;8.364;2023-02-15T04:08:08;3.00;99.90
12520;DHT22;6325;49.540;8.364;2023-02-15T04:10:35;3.50;99.90
12520;DHT22;6325;49.540;8.364;2023-02-15T04:13:21;3.70;99.90
12520;DHT22;6325;49.540;8.364;2023-02-15T04:15:50;3.80;99.90
12520;DHT22;6325;49.540;8.364;2023-02-15T04:18:32;3.50;99.90
12520;DHT22;6325;49.540;8.364;2023-02-15T04:21:20;3.60;99.90
12520;DHT22;6325;49.540;8.364;2023-02-15T04:24:05;2.80;99.90
12520;DHT22;6325;49.540;8.364;2023-02-15T04:26:50;2.60;99.90
12520;DHT22;6325;49.540;8.364;2023-02-15T04:29:18;2.80;99.90
12520;DHT22;6325;49.540;8.364;2023-02-15T04:31:46;3.40;99.90
12520;DHT22;6325;49.540;8.364;2023-02-15T04:34:13;2.40;99.90
12520;DHT22;6325;49.540;8.364;2023-02-15T04:36:41;2.80;99.90
12520;DHT22;6325;49.540;8.364;2023-02-15T04:39:11;3.50;99.90
12520;DHT22;6325;49.540;8.364;2023-02-15T04:41:39;3.40;99.90
12520;DHT22;6325;49.540;8.364;2023-02-15T04:44:06;3.10;99.90
12520;DHT22;6325;49.540;8.364;2023-02-15T04:46:33;2.70;99.90
12520;DHT22;6325;49.540;8.364;2023-02-15T04:49:00;3.30;99.90
12520;DHT22;6325;49.540;8.364;2023-02-15T04:51:27;3.20;99.90
12520;DHT22;6325;49.540;8.364;2023-02-15T04:53:55;3.70;99.90
12520;DHT22;6325;49.540;8.364;2023-02-15T04:56:22;3.10;99.90
12520;DHT22;6325;49.540;8.364;2023-02-15T04:58:49;3.70;99.90
12520;DHT22;6325;49.540;8.364;2023-02-15T05:01:16;3.50;99.90
12520;DHT22;6325;49.540;8.364;2023-02-15T05:03:43;3.40;99.90
12520;DHT22;6325;49.540;8.364;2023-02-15T05:06:11;3.10;99.90
12520;DHT22;6325;49.540;8.364;2023-02-15T05:08:38;3.20;99.90
12520;DHT22;6325;49.540;8.364;2023-02-15T05:11:07;3.20;99.90
12520;DHT22;6325;49.540;8.364;2023-02-15T05:13:34;3.40;99.90
12520;DHT22;6325;49.540;8.364;2023-02-15T05:16:01;3.10;99.90
12520;DHT22;6325;49.540;8.364;2023-02-15T05:18:28;2.60;99.90
12520;DHT22;6325;49.540;8.364;2023-02-15T05:20:54;2.90;99.90
12520;DHT22;6325;49.540;8.364;2023-02-15T05:23:21;2.90;99.90
12520;DHT22;6325;49.540;8.364;2023-02-15T05:25:49;3.00;99.90
12520;DHT22;6325;49.540;8.364;2023-02-15T05:28:36;3.40;99.90
12520;DHT22;6325;49.540;8.364;2023-02-15T05:31:06;3.50;99.90
12520;DHT22;6325;49.540;8.364;2023-02-15T05:33:34;3.40;99.90
12520;DHT22;6325;49.540;8.364;2023-02-15T05:36:02;3.40;99.90
12520;DHT22;6325;49.540;8.364;2023-02-15T05:38:29;2.50;99.90
12520;DHT22;6325;49.540;8.364;2023-02-15T05:40:57;3.20;99.90
12520;DHT22;6325;49.540;8.364;2023-02-15T05:43:24;3.10;99.90
12520;DHT22;6325;49.540;8.364;2023-02-15T05:45:54;3.00;99.90
12520;DHT22;6325;49.540;8.364;2023-02-15T05:48:22;3.60;99.90
12520;DHT22;6325;49.540;8.364;2023-02-15T05:50:57;3.00;99.90
12520;DHT22;6325;49.540;8.364;2023-02-15T05:53:25;3.20;99.90
12520;DHT22;6325;49.540;8.364;2023-02-15T05:55:52;3.00;99.90
12520;DHT22;6325;49.540;8.364;2023-02-15T05:58:24;3.60;99.90
12520;DHT22;6325;49.540;8.364;2023-02-15T06:00:53;3.40;99.90
12520;DHT22;6325;49.540;8.364;2023-02-15T06:03:20;3.50;99.90
12520;DHT22;6325;49.540;8.364;2023-02-15T06:05:47;3.20;99.90
12520;DHT22;6325;49.540;8.364;2023-02-15T06:08:20;3.30;99.90
12520;DHT22;6325;49.540;8.364;2023-02-15T06:10:48;3.30;99.90
12520;DHT22;6325;49.540;8.364;2023-02-15T06:13:15;3.10;99.90
12520;DHT22;6325;49.540;8.364;2023-02-15T06:15:42;2.60;99.90
12520;DHT22;6325;49.540;8.364;2023-02-15T06:18:10;3.20;99.90
12520;DHT22;6325;49.540;8.364;2023-02-15T06:20:37;3.70;99.90
12520;DHT22;6325;49.540;8.364;2023-02-15T06:23:04;3.00;99.90
12520;DHT22;6325;49.540;8.364;2023-02-15T06:25:32;2.60;99.90
12520;DHT22;6325;49.540;8.364;2023-02-15T06:28:00;3.10;99.90
12520;DHT22;6325;49.540;8.364;2023-02-15T06:30:28;3.00;99.90
12520;DHT22;6325;49.540;8.364;2023-02-15T06:32:54;3.40;99.90
12520;DHT22;6325;49.540;8.364;2023-02-15T06:35:23;2.70;99.90
12520;DHT22;6325;49.540;8.364;2023-02-15T06:37:50;2.60;99.90
12520;DHT22;6325;49.540;8.364;2023-02-15T06:40:17;3.60;99.90
12520;DHT22;6325;49.540;8.364;2023-02-15T06:42:44;3.50;99.90
12520;DHT22;6325;49.540;8.364;2023-02-15T06:45:11;3.90;99.90
12520;DHT22;6325;49.540;8.364;2023-02-15T06:47:38;3.50;99.90
12520;DHT22;6325;49.540;8.364;2023-02-15T06:50:06;2.40;99.90
12520;DHT22;6325;49.540;8.364;2023-02-15T06:52:35;3.60;99.90
12520;DHT22;6325;49.540;8.364;2023-02-15T06:55:02;3.10;99.90
12520;DHT22;6325;49.540;8.364;2023-02-15T06:57:29;3.40;99.90
12520;DHT22;6325;49.540;8.364;2023-02-15T06:59:57;3.20;99.90
12520;DHT22;6325;49.540;8.364;2023-02-15T07:02:24;2.60;99.90
12520;DHT22;6325;49.540;8.364;2023-02-15T07:04:51;2.70;99.90
12520;DHT22;6325;49.540;8.364;2023-02-15T07:07:19;2.90;99.90
12520;DHT22;6325;49.540;8.364;2023-02-15T07:09:47;2.50;99.90
12520;DHT22;6325;49.540;8.364;2023-02-15T07:12:14;3.00;99.90
12520;DHT22;6325;49.540;8.364;2023-02-15T07:14:58;2.50;99.90
12520;DHT22;6325;49.540;8.364;2023-02-15T07:17:29;3.20;99.90
12520;DHT22;6325;49.540;8.364;2023-02-15T07:19:57;2.90;99.90
12520;DHT22;6325;49.540;8.364;2023-02-15T07:22:24;3.20;99.90
12520;DHT22;6325;49.540;8.364;2023-02-15T07:24:52;3.00;99.90
12520;DHT22;6325;49.540;8.364;2023-02-15T07:27:20;2.70;99.90
12520;DHT22;6325;49.540;8.364;2023-02-15T07:29:47;3.50;99.90
12520;DHT22;6325;49.540;8.364;2023-02-15T07:32:14;3.00;99.90
12520;DHT22;6325;49.540;8.364;2023-02-15T07:34:41;3.10;99.90
12520;DHT22;6325;49.540;8.364;2023-02-15T07:37:08;3.30;99.90
12520;DHT22;6325;49.540;8.364;2023-02-15T07:39:35;3.00;99.90
12520;DHT22;6325;49.540;8.364;2023-02-15T07:42:03;3.60;99.90
12520;DHT22;6325;49.540;8.364;2023-02-15T07:44:30;3.20;99.90
12520;DHT22;6325;49.540;8.364;2023-02-15T07:46:57;3.30;99.90
12520;DHT22;6325;49.540;8.364;2023-02-15T07:49:24;3.40;99.90
12520;DHT22;6325;49.540;8.364;2023-02-15T07:51:51;2.90;99.90
12520;DHT22;6325;49.540;8.364;2023-02-15T07:54:18;2.40;99.90
12520;DHT22;6325;49.540;8.364;2023-02-15T07:56:48;3.30;99.90
12520;DHT22;6325;49.540;8.364;2023-02-15T07:59:30;3.50;99.90
12520;DHT22;6325;49.540;8.364;2023-02-15T08:01:57;3.40;99.90
12520;DHT22;6325;49.540;8.364;2023-02-15T08:04:24;2.80;99.90
12520;DHT22;6325;49.540;8.364;2023-02-15T08:06:52;3.00;99.90
12520;DHT22;6325;49.540;8.364;2023-02-15T08:09:20;3.30;99.90
12520;DHT22;6325;49.540;8.364;2023-02-15T08:11:47;3.20;99.90
12520;DHT22;6325;49.540;8.364;2023-02-15T08:14:16;2.90;99.90
12520;DHT22;6325;49.540;8.364;2023-02-15T08:16:46;3.40;99.90
12520;DHT22;6325;49.540;8.364;2023-02-15T08:19:16;2.80;99.90
12520;DHT22;6325;49.540;8.364;2023-02-15T08:21:45;2.60;99.90
12520;DHT22;6325;49.540;8.364;2023-02-15T08:24:14;3.20;99.90
12520;DHT22;6325;49.540;8.364;2023-02-15T08:26:42;2.80;99.90
12520;DHT22;6325;49.540;8.364;2023-02-15T08:29:10;3.90;99.90
12520;DHT22;6325;49.540;8.364;2023-02-15T08:31:37;3.50;99.90
12520;DHT22;6325;49.540;8.364;2023-02-15T08:34:08;3.10;99.90
12520;DHT22;6325;49.540;8.364;2023-02-15T08:36:36;3.60;99.90
12520;DHT22;6325;49.540;8.364;2023-02-15T08:39:04;3.20;99.90
12520;DHT22;6325;49.540;8.364;2023-02-15T08:41:33;3.10;99.90
12520;DHT22;6325;49.540;8.364;2023-02-15T08:44:02;2.50;99.90
12520;DHT22;6325;49.540;8.364;2023-02-15T08:46:32;2.90;99.90
12520;DHT22;6325;49.540;8.364;2023-02-15T08:48:59;3.10;99.90
12520;DHT22;6325;49.540;8.364;2023-02-15T08:51:30;3.20;99.90
12520;DHT22;6325;49.540;8.364;2023-02-15T08:53:59;3.90;99.90
12520;DHT22;6325;49.540;8.364;2023-02-15T08:56:27;2.70;99.90
12520;DHT22;6325;49.540;8.364;2023-02-15T08:58:55;3.50;99.90
12520;DHT22;6325;49.540;8.364;2023-02-15T09:01:26;3.40;99.90
12520;DHT22;6325;49.540;8.364;2023-02-15T09:03:56;2.80;99.90
12520;DHT22;6325;49.540;8.364;2023-02-15T09:06:24;2.70;99.90
12520;DHT22;6325;49.540;8.364;2023-02-15T09:08:53;3.20;99.90
12520;DHT22;6325;49.540;8.364;2023-02-15T09:11:22;2.50;99.90
12520;DHT22;6325;49.540;8.364;2023-02-15T09:13:52;3.10;99.90
12520;DHT22;6325;49.540;8.364;2023-02-15T09:16:20;3.30;99.90
12520;DHT22;6325;49.540;8.364;2023-02-15T09:18:48;3.60;99.90
12520;DHT22;6325;49.540;8.364;2023-02-15T09:21:18;3.60;99.90
12520;DHT22;6325;49.540;8.364;2023-02-15T09:23:47;3.00;99.90
12520;DHT22;6325;49.540;8.364;2023-02-15T09:26:17;3.60;99.90
12520;DHT22;6325;49.540;8.364;2023-02-15T09:28:44;3.30;99.90
12520;DHT22;6325;49.540;8.364;2023-02-15T09:31:13;3.80;99.90
12520;DHT22;6325;49.540;8.364;2023-02-15T09:33:44;3.90;99.90
12520;DHT22;6325;49.540;8.364;2023-02-15T09:36:17;3.20;99.90
12520;DHT22;6325;49.540;8.364;2023-02-15T09:38:46;4.10;99.90
12520;DHT22;6325;49.540;8.364;2023-02-15T09:44:16;3.70;99.90
12520;DHT22;6325;49.540;8.364;2023-02-15T09:46:55;3.00;99.90
12520;DHT22;6325;49.540;8.364;2023-02-15T09:49:32;4.00;99.90
12520;DHT22;6325;49.540;8.364;2023-02-15T09:52:17;3.60;99.90
12520;DHT22;6325;49.540;8.364;2023-02-15T09:55:03;3.50;99.90
12520;DHT22;6325;49.540;8.364;2023-02-15T09:57:37;3.40;99.90
12520;DHT22;6325;49.540;8.364;2023-02-15T10:00:12;3.50;99.90
12520;DHT22;6325;49.540;8.364;2023-02-15T10:02:56;3.30;99.90
12520;DHT22;6325;49.540;8.364;2023-02-15T10:05:38;3.80;99.90
12520;DHT22;6325;49.540;8.364;2023-02-15T10:08:20;3.10;99.90
12520;DHT22;6325;49.540;8.364;2023-02-15T10:10:55;3.00;99.90
12520;DHT22;6325;49.540;8.364;2023-02-15T10:13:52;3.30;99.90
12520;DHT22;6325;49.540;8.364;2023-02-15T10:16:31;3.30;99.90
12520;DHT22;6325;49.540;8.364;2023-02-15T10:19:04;3.30;99.90
12520;DHT22;6325;49.540;8.364;2023-02-15T10:21:46;3.20;99.90
12520;DHT22;6325;49.540;8.364;2023-02-15T10:24:35;3.10;99.90
12520;DHT22;6325;49.540;8.364;2023-02-15T10:27:10;3.80;99.90
12520;DHT22;6325;49.540;8.364;2023-02-15T10:29:45;3.30;99.90
12520;DHT22;6325;49.540;8.364;2023-02-15T10:32:21;3.00;99.90
12520;DHT22;6325;49.540;8.364;2023-02-15T10:34:52;3.80;99.90
12520;DHT22;6325;49.540;8.364;2023-02-15T10:37:38;3.60;99.90
12520;DHT22;6325;49.540;8.364;2023-02-15T10:40:15;3.70;99.90
12520;DHT22;6325;49.540;8.364;2023-02-15T10:42:56;3.80;99.90
12520;DHT22;6325;49.540;8.364;2023-02-15T10:45:31;3.00;99.90
12520;DHT22;6325;49.540;8.364;2023-02-15T10:48:16;3.40;99.90
12520;DHT22;6325;49.540;8.364;2023-02-15T10:50:48;3.40;99.90
12520;DHT22;6325;49.540;8.364;2023-02-15T10:56:22;3.60;99.90
12520;DHT22;6325;49.540;8.364;2023-02-15T10:59:04;4.00;99.90
12520;DHT22;6325;49.540;8.364;2023-02-15T11:01:40;3.80;99.90
12520;DHT22;6325;49.540;8.364;2023-02-15T11:07:08;3.70;99.90
12520;DHT22;6325;49.540;8.364;2023-02-15T11:09:43;3.70;99.90
12520;DHT22;6325;49.540;8.364;2023-02-15T11:12:14;3.70;99.90
12520;DHT22;6325;49.540;8.364;2023-02-15T11:14:45;4.10;99.90
12520;DHT22;6325;49.540;8.364;2023-02-15T11:17:17;3.40;99.90
12520;DHT22;6325;49.540;8.364;2023-02-15T11:19:54;3.60;99.90
12520;DHT22;6325;49.540;8.364;2023-02-15T11:22:23;3.70;99.90
12520;DHT22;6325;49.540;8.364;2023-02-15T11:24:51;3.30;99.90
12520;DHT22;6325;49.540;8.364;2023-02-15T11:27:21;4.10;99.90
12520;DHT22;6325;49.540;8.364;2023-02-15T11:29:55;3.50;99.90
12520;DHT22;6325;49.540;8.364;2023-02-15T11:32:27;4.30;99.90
12520;DHT22;6325;49.540;8.364;2023-02-15T11:34:58;3.30;99.90
12520;DHT22;6325;49.540;8.364;2023-02-15T11:37:32;3.60;99.90
12520;DHT22;6325;49.540;8.364;2023-02-15T11:40:01;3.80;99.90
12520;DHT22;6325;49.540;8.364;2023-02-15T11:42:30;4.40;99.90
12520;DHT22;6325;49.540;8.364;2023-02-15T11:45:04;4.30;99.90
12520;DHT22;6325;49.540;8.364;2023-02-15T11:47:36;4.20;99.90
12520;DHT22;6325;49.540;8.364;2023-02-15T11:50:04;4.00;99.90
12520;DHT22;6325;49.540;8.364;2023-02-15T11:52:31;3.40;99.90
12520;DHT22;6325;49.540;8.364;2023-02-15T11:55:00;3.50;99.90
12520;DHT22;6325;49.540;8.364;2023-02-15T11:57:33;4.10;99.90
12520;DHT22;6325;49.540;8.364;2023-02-15T12:00:10;3.70;99.90
12520;DHT22;6325;49.540;8.364;2023-02-15T12:02:45;4.50;99.90
12520;DHT22;6325;49.540;8.364;2023-02-15T12:05:16;4.60;99.90
12520;DHT22;6325;49.540;8.364;2023-02-15T12:07:46;3.80;99.90
12520;DHT22;6325;49.540;8.364;2023-02-15T12:10:19;4.50;99.90
12520;DHT22;6325;49.540;8.364;2023-02-15T12:12:47;4.40;99.90
12520;DHT22;6325;49.540;8.364;2023-02-15T12:15:14;4.20;99.90
12520;DHT22;6325;49.540;8.364;2023-02-15T12:17:52;3.50;99.90
12520;DHT22;6325;49.540;8.364;2023-02-15T12:20:24;4.20;99.90
12520;DHT22;6325;49.540;8.364;2023-02-15T12:22:58;4.00;99.90
12520;DHT22;6325;49.540;8.364;2023-02-15T12:25:33;4.20;99.90
12520;DHT22;6325;49.540;8.364;2023-02-15T12:28:02;4.40;99.90
12520;DHT22;6325;49.540;8.364;2023-02-15T12:30:32;4.80;99.90
12520;DHT22;6325;49.540;8.364;2023-02-15T12:33:13;4.00;99.90
12520;DHT22;6325;49.540;8.364;2023-02-15T12:35:43;4.80;99.90
12520;DHT22;6325;49.540;8.364;2023-02-15T12:38:23;4.20;99.90
12520;DHT22;6325;49.540;8.364;2023-02-15T12:40:57;4.00;99.90
12520;DHT22;6325;49.540;8.364;2023-02-15T12:43:26;4.40;99.90
12520;DHT22;6325;49.540;8.364;2023-02-15T12:46:21;4.40;99.90
12520;DHT22;6325;49.540;8.364;2023-02-15T12:49:06;4.40;99.90
12520;DHT22;6325;49.540;8.364;2023-02-15T12:51:45;4.80;99.90
12520;DHT22;6325;49.540;8.364;2023-02-15T12:57:13;3.30;99.90
12520;DHT22;6325;49.540;8.364;2023-02-15T12:59:48;4.50;99.90
12520;DHT22;6325;49.540;8.364;2023-02-15T13:02:21;3.60;99.90
12520;DHT22;6325;49.540;8.364;2023-02-15T13:04:50;4.20;99.90
12520;DHT22;6325;49.540;8.364;2023-02-15T13:07:19;4.70;99.90
12520;DHT22;6325;49.540;8.364;2023-02-15T13:09:47;4.30;99.90
12520;DHT22;6325;49.540;8.364;2023-02-15T13:12:21;3.90;99.90
12520;DHT22;6325;49.540;8.364;2023-02-15T13:14:54;3.90;99.90
12520;DHT22;6325;49.540;8.364;2023-02-15T13:17:27;5.00;99.90
12520;DHT22;6325;49.540;8.364;2023-02-15T13:20:00;5.20;99.90
12520;DHT22;6325;49.540;8.364;2023-02-15T13:22:34;4.50;99.90
12520;DHT22;6325;49.540;8.364;2023-02-15T13:25:11;4.60;99.90
12520;DHT22;6325;49.540;8.364;2023-02-15T13:27:41;4.30;99.90
12520;DHT22;6325;49.540;8.364;2023-02-15T13:30:20;4.90;99.90
12520;DHT22;6325;49.540;8.364;2023-02-15T13:32:51;4.80;99.90
12520;DHT22;6325;49.540;8.364;2023-02-15T13:35:20;4.30;99.90
12520;DHT22;6325;49.540;8.364;2023-02-15T13:37:59;4.40;99.90
12520;DHT22;6325;49.540;8.364;2023-02-15T13:40:34;4.60;99.90
12520;DHT22;6325;49.540;8.364;2023-02-15T13:43:12;4.40;99.90
12520;DHT22;6325;49.540;8.364;2023-02-15T13:46:04;4.60;99.90
12520;DHT22;6325;49.540;8.364;2023-02-15T13:48:41;4.90;99.90
12520;DHT22;6325;49.540;8.364;2023-02-15T13:51:19;4.60;99.90
12520;DHT22;6325;49.540;8.364;2023-02-15T13:54:09;5.20;99.90
12520;DHT22;6325;49.540;8.364;2023-02-15T13:56:52;4.20;99.90
12520;DHT22;6325;49.540;8.364;2023-02-15T13:59:46;4.50;99.90
12520;DHT22;6325;49.540;8.364;2023-02-15T14:05:29;4.70;99.90
12520;DHT22;6325;49.540;8.364;2023-02-15T14:08:08;4.90;99.90
12520;DHT22;6325;49.540;8.364;2023-02-15T14:11:06;4.60;99.90
12520;DHT22;6325;49.540;8.364;2023-02-15T14:16:30;4.60;99.90
12520;DHT22;6325;49.540;8.364;2023-02-15T14:19:09;4.60;99.90
12520;DHT22;6325;49.540;8.364;2023-02-15T14:21:46;5.00;99.90
12520;DHT22;6325;49.540;8.364;2023-02-15T14:24:26;5.00;99.90
12520;DHT22;6325;49.540;8.364;2023-02-15T14:27:03;4.90;99.90
12520;DHT22;6325;49.540;8.364;2023-02-15T14:29:42;4.80;99.90
12520;DHT22;6325;49.540;8.364;2023-02-15T14:32:12;4.90;99.90
12520;DHT22;6325;49.540;8.364;2023-02-15T14:34:45;4.70;99.90
12520;DHT22;6325;49.540;8.364;2023-02-15T14:37:15;4.50;99.90
12520;DHT22;6325;49.540;8.364;2023-02-15T14:39:47;4.40;99.90
12520;DHT22;6325;49.540;8.364;2023-02-15T14:42:42;4.90;99.90
12520;DHT22;6325;49.540;8.364;2023-02-15T14:45:18;5.00;99.90
12520;DHT22;6325;49.540;8.364;2023-02-15T14:47:51;4.80;99.90
12520;DHT22;6325;49.540;8.364;2023-02-15T14:50:39;5.00;99.90
12520;DHT22;6325;49.540;8.364;2023-02-15T14:53:25;4.90;99.90
12520;DHT22;6325;49.540;8.364;2023-02-15T14:56:23;5.00;99.90
12520;DHT22;6325;49.540;8.364;2023-02-15T14:59:18;4.20;99.90
12520;DHT22;6325;49.540;8.364;2023-02-15T15:01:56;4.90;99.90
12520;DHT22;6325;49.540;8.364;2023-02-15T15:04:29;5.10;99.90
12520;DHT22;6325;49.540;8.364;2023-02-15T15:07:07;4.60;99.90
12520;DHT22;6325;49.540;8.364;2023-02-15T15:09:39;5.10;99.90
12520;DHT22;6325;49.540;8.364;2023-02-15T15:14:57;4.80;99.90
12520;DHT22;6325;49.540;8.364;2023-02-15T15:17:52;5.10;99.90
12520;DHT22;6325;49.540;8.364;2023-02-15T15:20:44;4.30;99.90
12520;DHT22;6325;49.540;8.364;2023-02-15T15:23:40;4.80;99.90
12520;DHT22;6325;49.540;8.364;2023-02-15T15:26:26;4.10;99.90
12520;DHT22;6325;49.540;8.364;2023-02-15T15:28:57;4.80;99.90
12520;DHT22;6325;49.540;8.364;2023-02-15T15:31:33;4.10;99.90
12520;DHT22;6325;49.540;8.364;2023-02-15T15:34:32;4.60;99.90
12520;DHT22;6325;49.540;8.364;2023-02-15T15:37:33;4.60;99.90
12520;DHT22;6325;49.540;8.364;2023-02-15T15:43:34;4.70;99.90
12520;DHT22;6325;49.540;8.364;2023-02-15T15:46:18;4.50;99.90
12520;DHT22;6325;49.540;8.364;2023-02-15T15:48:51;5.00;99.90
12520;DHT22;6325;49.540;8.364;2023-02-15T15:51:20;4.70;99.90
12520;DHT22;6325;49.540;8.364;2023-02-15T15:53:51;4.80;99.90
12520;DHT22;6325;49.540;8.364;2023-02-15T15:56:22;4.90;99.90
12520;DHT22;6325;49.540;8.364;2023-02-15T15:58:55;4.50;99.90
12520;DHT22;6325;49.540;8.364;2023-02-15T16:01:29;4.80;99.90
12520;DHT22;6325;49.540;8.364;2023-02-15T16:03:58;4.40;99.90
12520;DHT22;6325;49.540;8.364;2023-02-15T16:06:31;4.00;99.90
12520;DHT22;6325;49.540;8.364;2023-02-15T16:09:17;4.30;99.90
12520;DHT22;6325;49.540;8.364;2023-02-15T16:11:46;4.70;99.90
12520;DHT22;6325;49.540;8.364;2023-02-15T16:14:17;3.70;99.90
12520;DHT22;6325;49.540;8.364;2023-02-15T16:16:51;4.20;99.90
12520;DHT22;6325;49.540;8.364;2023-02-15T16:19:21;3.70;99.90
12520;DHT22;6325;49.540;8.364;2023-02-15T16:21:50;4.10;99.90
12520;DHT22;6325;49.540;8.364;2023-02-15T16:27:33;4.10;99.90
12520;DHT22;6325;49.540;8.364;2023-02-15T16:30:19;4.60;99.90
12520;DHT22;6325;49.540;8.364;2023-02-15T16:32:54;4.10;99.90
12520;DHT22;6325;49.540;8.364;2023-02-15T16:35:25;4.10;99.90
12520;DHT22;6325;49.540;8.364;2023-02-15T16:37:55;4.00;99.90
12520;DHT22;6325;49.540;8.364;2023-02-15T16:40:30;4.00;99.90
12520;DHT22;6325;49.540;8.364;2023-02-15T16:43:03;4.10;99.90
12520;DHT22;6325;49.540;8.364;2023-02-15T16:45:32;3.70;99.90
12520;DHT22;6325;49.540;8.364;2023-02-15T16:48:07;4.30;99.90
12520;DHT22;6325;49.540;8.364;2023-02-15T16:50:38;3.80;99.90
12520;DHT22;6325;49.540;8.364;2023-02-15T16:53:07;4.10;99.90
12520;DHT22;6325;49.540;8.364;2023-02-15T16:55:41;4.20;99.90
12520;DHT22;6325;49.540;8.364;2023-02-15T16:58:14;4.10;99.90
12520;DHT22;6325;49.540;8.364;2023-02-15T17:00:45;3.20;99.90
12520;DHT22;6325;49.540;8.364;2023-02-15T17:03:23;4.20;99.90
12520;DHT22;6325;49.540;8.364;2023-02-15T17:05:51;3.60;99.90
12520;DHT22;6325;49.540;8.364;2023-02-15T17:08:27;3.50;99.90
12520;DHT22;6325;49.540;8.364;2023-02-15T17:11:12;2.90;99.90